Time;durP1;ratioP1;P1;durP2;ratioP2;P2;SDS_P1;SDS_P2;PMS_P1;PMS_P2;Temp;Humidity;BMP_temperature;BMP_pressure;BME280_temperature;BME280_humidity;BME280_pressure;Samples;Min_cycle;Max_cycle;Signal;HPM_P1;HPM_P2
2023/05/24 00:01:13;;;;;;;18.38;6.13;;;9.10;84.00;;;;;;4894498;29;20049;-86
2023/05/24 00:03:39;;;;;;;21.70;7.20;;;9.10;84.10;;;;;;4877512;29;20421;-86
2023/05/24 00:06:05;;;;;;;17.40;6.45;;;9.10;84.10;;;;;;4875974;29;20076;-87
2023/05/24 00:08:33;;;;;;;19.52;7.07;;;9.10;84.10;;;;;;4894575;29;20020;-87
2023/05/24 00:10:59;;;;;;;19.80;6.57;;;9.00;84.10;;;;;;4874682;29;20041;-86
2023/05/24 00:13:25;;;;;;;18.25;7.00;;;9.00;84.20;;;;;;4883542;29;20043;-86
2023/05/24 00:15:51;;;;;;;17.63;6.20;;;9.00;84.20;;;;;;4877845;29;20028;-86
2023/05/24 00:18:17;;;;;;;16.92;6.03;;;9.00;84.10;;;;;;4879352;29;20037;-86
2023/05/24 00:20:43;;;;;;;17.85;6.38;;;9.00;84.20;;;;;;4892921;29;20016;-85
2023/05/24 00:23:09;;;;;;;17.77;6.10;;;9.00;84.20;;;;;;4875880;29;20077;-86
2023/05/24 00:25:35;;;;;;;15.95;5.70;;;8.90;84.30;;;;;;4875772;29;20056;-86
2023/05/24 00:28:01;;;;;;;17.70;6.32;;;8.90;84.40;;;;;;4886436;29;20458;-86
2023/05/24 00:30:26;;;;;;;18.23;6.90;;;8.90;84.40;;;;;;4898469;29;20040;-86
2023/05/24 00:32:52;;;;;;;16.05;6.28;;;8.80;84.60;;;;;;4870395;29;20048;-85
2023/05/24 00:35:18;;;;;;;18.90;6.47;;;8.80;84.50;;;;;;4874671;29;20066;-86
2023/05/24 00:37:44;;;;;;;16.88;6.30;;;8.80;84.60;;;;;;4879349;29;20040;-85
2023/05/24 00:40:13;;;;;;;17.35;6.55;;;8.80;84.80;;;;;;4881551;29;20046;-86
2023/05/24 00:42:38;;;;;;;18.63;6.50;;;8.80;84.80;;;;;;4888052;29;20041;-86
2023/05/24 00:45:05;;;;;;;18.52;7.47;;;8.80;84.80;;;;;;4877674;29;20065;-86
2023/05/24 00:47:31;;;;;;;18.02;7.25;;;8.80;84.90;;;;;;4877658;29;20064;-86
2023/05/24 00:49:57;;;;;;;22.73;7.20;;;8.70;84.90;;;;;;4884934;29;20119;-87
2023/05/24 00:52:23;;;;;;;22.30;7.10;;;8.80;85.10;;;;;;4875262;29;20050;-87
2023/05/24 00:54:49;;;;;;;17.70;6.68;;;8.70;85.00;;;;;;4876734;29;20039;-87
2023/05/24 00:57:17;;;;;;;22.65;7.63;;;8.70;85.10;;;;;;4876226;29;20088;-87
2023/05/24 00:59:44;;;;;;;16.40;6.55;;;8.80;85.10;;;;;;4876749;29;20036;-86
2023/05/24 01:02:10;;;;;;;22.08;7.18;;;8.70;85.10;;;;;;4876208;29;20048;-85
2023/05/24 01:04:36;;;;;;;15.27;6.30;;;8.70;85.20;;;;;;4875547;29;20035;-86
2023/05/24 01:07:31;;;;;;;18.75;7.13;;;8.70;85.30;;;;;;4875748;29;20049;-85
2023/05/24 01:10:51;;;;;;;18.00;6.40;;;8.70;85.30;;;;;;4888434;29;20033;-86
2023/05/24 01:13:54;;;;;;;14.25;6.07;;;8.70;85.30;;;;;;4819211;29;20169;-85
2023/05/24 01:16:26;;;;;;;17.73;6.00;;;8.70;85.30;;;;;;4847699;29;20579;-86
2023/05/24 01:19:04;;;;;;;19.20;6.03;;;8.70;85.20;;;;;;4871273;29;20544;-87
2023/05/24 01:21:30;;;;;;;15.23;5.97;;;8.60;85.20;;;;;;4882986;29;20028;-85
2023/05/24 01:24:18;;;;;;;18.48;5.95;;;8.60;85.30;;;;;;4889792;29;20381;-85
2023/05/24 01:27:06;;;;;;;18.00;5.88;;;8.60;85.40;;;;;;4894530;29;20437;-85
2023/05/24 01:29:34;;;;;;;20.48;6.43;;;8.60;85.40;;;;;;4889691;29;20874;-86
2023/05/24 01:32:00;;;;;;;16.33;6.50;;;8.60;85.40;;;;;;4872673;29;20062;-84
2023/05/24 01:34:26;;;;;;;14.68;6.22;;;8.60;85.30;;;;;;4877892;29;20076;-86
2023/05/24 01:36:51;;;;;;;14.13;6.00;;;8.60;85.10;;;;;;4873381;29;20037;-86
2023/05/24 01:39:18;;;;;;;16.35;6.57;;;8.50;85.00;;;;;;4880123;29;20024;-86
2023/05/24 01:41:48;;;;;;;13.95;6.03;;;8.50;84.80;;;;;;4866822;29;20427;-86
2023/05/24 01:44:23;;;;;;;16.13;6.20;;;8.40;84.70;;;;;;4895304;29;20622;-86
2023/05/24 01:46:52;;;;;;;;;;;8.40;84.70;;;;;;4881005;29;20443;-86
2023/05/24 01:49:25;;;;;;;15.20;5.93;;;8.40;84.70;;;;;;4883606;29;19967;-86
2023/05/24 01:52:10;;;;;;;14.38;5.82;;;8.30;84.60;;;;;;4886249;29;20041;-86
2023/05/24 01:54:42;;;;;;;12.90;6.18;;;8.30;84.40;;;;;;4892768;29;20358;-86
2023/05/24 01:57:09;;;;;;;13.25;6.25;;;8.30;84.50;;;;;;4867994;29;20032;-85
2023/05/24 01:59:37;;;;;;;13.18;5.68;;;8.20;84.60;;;;;;4895082;29;20055;-86
2023/05/24 02:02:02;;;;;;;18.27;6.80;;;8.20;84.70;;;;;;4875129;29;20079;-85
2023/05/24 02:04:29;;;;;;;15.82;5.93;;;8.20;84.60;;;;;;4870384;29;20497;-86
2023/05/24 02:06:57;;;;;;;11.40;5.15;;;8.10;84.50;;;;;;4871816;29;20084;-86
2023/05/24 02:09:22;;;;;;;16.13;7.13;;;8.10;84.40;;;;;;4886018;29;20037;-85
2023/05/24 02:11:48;;;;;;;19.52;6.18;;;8.10;84.50;;;;;;4878387;29;20048;-86
2023/05/24 02:14:16;;;;;;;20.02;6.85;;;8.10;84.40;;;;;;4874576;29;20119;-86
2023/05/24 02:16:45;;;;;;;12.05;5.68;;;8.10;84.30;;;;;;4875116;29;20044;-86
2023/05/24 02:19:11;;;;;;;15.60;5.72;;;8.00;84.10;;;;;;4877830;29;20021;-86
2023/05/24 02:21:37;;;;;;;16.27;6.78;;;8.00;84.20;;;;;;4888664;29;20055;-85
2023/05/24 02:24:03;;;;;;;15.52;6.25;;;7.90;84.30;;;;;;4881225;29;20361;-85
2023/05/24 02:26:29;;;;;;;12.18;6.40;;;7.90;84.40;;;;;;4878410;29;20028;-85
2023/05/24 02:28:55;;;;;;;14.75;6.28;;;7.80;84.40;;;;;;4899384;29;20032;-84
2023/05/24 02:31:21;;;;;;;17.00;6.72;;;7.80;84.50;;;;;;4879673;29;20037;-86
2023/05/24 02:33:47;;;;;;;16.88;6.50;;;7.80;84.50;;;;;;4896975;29;20039;-86
2023/05/24 02:36:12;;;;;;;16.33;7.43;;;7.70;84.50;;;;;;4879496;29;20037;-85
2023/05/24 02:38:39;;;;;;;11.50;5.88;;;7.70;84.60;;;;;;4879501;29;20039;-85
2023/05/24 02:41:04;;;;;;;20.77;6.78;;;7.60;84.50;;;;;;4875397;29;20277;-86
2023/05/24 02:43:30;;;;;;;15.00;7.13;;;7.60;84.70;;;;;;4891507;29;20096;-86
2023/05/24 02:45:56;;;;;;;17.98;6.57;;;7.50;85.00;;;;;;4877916;29;20033;-86
2023/05/24 02:48:21;;;;;;;11.88;6.28;;;7.60;85.10;;;;;;4890473;29;20020;-86
2023/05/24 02:50:47;;;;;;;13.85;6.20;;;7.50;85.00;;;;;;4888849;29;20480;-86
2023/05/24 02:53:13;;;;;;;16.63;7.07;;;7.50;85.20;;;;;;4872727;29;20080;-86
2023/05/24 02:55:39;;;;;;;14.63;6.50;;;7.50;85.10;;;;;;4892891;29;20036;-86
2023/05/24 02:58:05;;;;;;;15.23;6.55;;;7.40;85.40;;;;;;4882518;29;20036;-86
2023/05/24 03:00:30;;;;;;;14.52;6.60;;;7.50;85.50;;;;;;4872620;29;20031;-86
2023/05/24 03:02:59;;;;;;;16.30;6.30;;;7.50;85.60;;;;;;4895813;29;20382;-86
2023/05/24 03:05:25;;;;;;;13.57;5.95;;;7.50;85.40;;;;;;4896694;29;20029;-87
2023/05/24 03:07:50;;;;;;;15.82;6.75;;;7.50;85.30;;;;;;4884742;29;20047;-86
2023/05/24 03:10:16;;;;;;;18.02;6.57;;;7.50;85.10;;;;;;4887585;29;20420;-85
2023/05/24 03:12:56;;;;;;;16.70;6.30;;;7.40;85.30;;;;;;5037155;28;20513;-77
2023/05/24 03:15:21;;;;;;;16.95;7.13;;;7.40;85.30;;;;;;5038775;28;20483;-76
2023/05/24 03:17:47;;;;;;;17.45;7.25;;;7.40;85.50;;;;;;5039293;28;20556;-77
2023/05/24 03:20:14;;;;;;;16.05;7.22;;;7.40;85.70;;;;;;5037782;28;20029;-77
2023/05/24 03:22:40;;;;;;;16.00;6.43;;;7.40;85.60;;;;;;5037581;28;20411;-77
2023/05/24 03:25:07;;;;;;;14.10;6.75;;;7.40;85.40;;;;;;5042809;28;20844;-77
2023/05/24 03:27:33;;;;;;;19.80;7.45;;;7.40;85.40;;;;;;5038992;28;20033;-76
2023/05/24 03:29:59;;;;;;;15.07;7.07;;;7.40;85.60;;;;;;5034316;28;20449;-77
2023/05/24 03:32:25;;;;;;;16.45;7.78;;;7.40;85.70;;;;;;5036813;28;20509;-76
2023/05/24 03:34:50;;;;;;;15.68;6.43;;;7.40;85.50;;;;;;5034994;28;20168;-77
2023/05/24 03:37:16;;;;;;;16.83;6.90;;;7.30;85.40;;;;;;5039233;28;20124;-77
2023/05/24 03:39:42;;;;;;;14.30;6.28;;;7.30;85.30;;;;;;5036496;28;20028;-77
2023/05/24 03:42:07;;;;;;;14.85;6.82;;;7.30;85.30;;;;;;5037706;28;20037;-76
2023/05/24 03:44:33;;;;;;;16.08;6.78;;;7.30;85.30;;;;;;5035508;28;20025;-76
2023/05/24 03:46:59;;;;;;;12.80;6.28;;;7.30;85.30;;;;;;5036249;28;20037;-77
2023/05/24 03:49:24;;;;;;;15.10;7.53;;;7.30;85.50;;;;;;5039100;28;20029;-77
2023/05/24 03:51:50;;;;;;;14.75;6.72;;;7.40;85.30;;;;;;5037420;28;20045;-76
2023/05/24 03:54:16;;;;;;;18.02;6.68;;;7.40;85.10;;;;;;5036486;28;20151;-76
2023/05/24 03:56:42;;;;;;;16.02;7.30;;;7.30;85.10;;;;;;5035279;28;20048;-77
2023/05/24 03:59:08;;;;;;;17.05;6.93;;;7.30;85.10;;;;;;5034397;28;20033;-77
2023/05/24 04:01:35;;;;;;;18.35;7.10;;;7.30;85.30;;;;;;5030543;28;20460;-77
2023/05/24 04:04:02;;;;;;;17.98;8.40;;;7.40;85.30;;;;;;5036939;28;20040;-78
2023/05/24 04:06:29;;;;;;;14.40;7.18;;;7.50;85.30;;;;;;5035405;28;20041;-77
2023/05/24 04:08:56;;;;;;;12.98;6.88;;;7.50;85.20;;;;;;5034775;28;20116;-77
2023/05/24 04:11:22;;;;;;;19.15;8.43;;;7.60;85.20;;;;;;5036045;28;20042;-77
2023/05/24 04:13:50;;;;;;;14.50;6.85;;;7.60;85.10;;;;;;5035959;28;20052;-77
2023/05/24 04:16:16;;;;;;;17.92;6.82;;;7.70;84.80;;;;;;5034522;28;20102;-78
2023/05/24 04:18:42;;;;;;;15.85;7.50;;;7.80;84.50;;;;;;5039159;28;20062;-76
2023/05/24 04:21:07;;;;;;;17.83;6.93;;;7.70;84.60;;;;;;5037680;28;20418;-78
2023/05/24 04:23:33;;;;;;;14.85;6.47;;;7.90;84.60;;;;;;5026757;28;20492;-77
2023/05/24 04:25:58;;;;;;;18.52;7.28;;;8.00;84.50;;;;;;5023836;28;20067;-76
2023/05/24 04:28:25;;;;;;;14.40;7.22;;;8.10;84.20;;;;;;5022868;28;20025;-76
2023/05/24 04:30:51;;;;;;;16.73;7.00;;;8.10;84.20;;;;;;5020323;28;20033;-77
2023/05/24 04:33:16;;;;;;;16.13;6.47;;;8.10;84.10;;;;;;5024344;28;20033;-76
2023/05/24 04:35:43;;;;;;;15.45;7.10;;;8.10;84.10;;;;;;5021863;28;20500;-76
2023/05/24 04:38:11;;;;;;;14.13;6.80;;;8.30;84.00;;;;;;5018957;28;20095;-76
2023/05/24 04:40:37;;;;;;;12.45;5.90;;;8.30;83.90;;;;;;5013889;28;20075;-77
2023/05/24 04:43:05;;;;;;;13.50;6.43;;;8.30;83.90;;;;;;5012126;28;20291;-76
2023/05/24 04:45:31;;;;;;;13.60;6.95;;;8.40;83.70;;;;;;5010083;28;20022;-77
2023/05/24 04:47:57;;;;;;;15.00;6.78;;;8.40;83.70;;;;;;5009844;28;20365;-77
2023/05/24 04:50:23;;;;;;;18.85;6.97;;;8.50;83.50;;;;;;5010624;28;20463;-78
2023/05/24 04:52:49;;;;;;;12.85;6.05;;;8.60;83.40;;;;;;5009669;28;20546;-79
2023/05/24 04:55:14;;;;;;;14.80;6.70;;;8.70;83.40;;;;;;5007870;28;20021;-78
2023/05/24 04:57:40;;;;;;;16.48;7.32;;;8.80;83.20;;;;;;5011074;28;20025;-77
2023/05/24 05:00:06;;;;;;;15.98;6.93;;;9.00;82.80;;;;;;5014318;28;20026;-77
2023/05/24 05:02:32;;;;;;;16.08;6.93;;;9.10;82.70;;;;;;5017172;28;20539;-76
2023/05/24 05:04:58;;;;;;;14.35;7.82;;;9.30;82.40;;;;;;5019507;28;20029;-79
2023/05/24 05:07:23;;;;;;;18.38;7.53;;;9.40;82.10;;;;;;5021619;28;20041;-76
2023/05/24 05:09:49;;;;;;;13.95;6.90;;;9.60;81.80;;;;;;5021358;28;20095;-78
2023/05/24 05:12:15;;;;;;;18.80;6.85;;;9.60;81.50;;;;;;5020527;28;21527;-77
2023/05/24 05:14:41;;;;;;;17.27;6.85;;;9.70;81.30;;;;;;5023284;28;20072;-76
2023/05/24 05:17:06;;;;;;;15.70;7.18;;;9.90;81.10;;;;;;5018295;28;20442;-77
2023/05/24 05:19:32;;;;;;;18.73;7.85;;;10.00;80.70;;;;;;5012029;28;20060;-77
2023/05/24 05:21:58;;;;;;;14.98;6.82;;;10.10;80.90;;;;;;5008759;28;20045;-77
2023/05/24 05:24:23;;;;;;;23.90;7.90;;;10.20;80.90;;;;;;5012468;28;20584;-77
2023/05/24 05:26:49;;;;;;;13.07;7.20;;;10.20;80.40;;;;;;5009338;28;20037;-76
2023/05/24 05:29:15;;;;;;;18.08;7.85;;;10.20;80.90;;;;;;5013347;28;20025;-79
2023/05/24 05:31:40;;;;;;;18.90;7.40;;;10.10;81.10;;;;;;5020771;28;20050;-78
2023/05/24 05:34:09;;;;;;;18.05;7.65;;;10.10;81.10;;;;;;5014956;28;20045;-78
2023/05/24 05:36:39;;;;;;;20.05;8.10;;;10.10;81.50;;;;;;5023821;28;20095;-78
2023/05/24 05:39:08;;;;;;;22.15;7.93;;;10.10;81.90;;;;;;5021277;28;20024;-77
2023/05/24 05:41:44;;;;;;;18.17;7.70;;;10.10;82.30;;;;;;5017203;28;20048;-77
2023/05/24 05:44:11;;;;;;;16.30;7.57;;;10.10;82.80;;;;;;5019923;28;20043;-78
2023/05/24 05:46:37;;;;;;;18.50;7.95;;;10.30;82.90;;;;;;5016554;28;20091;-79
2023/05/24 05:49:03;;;;;;;20.23;8.55;;;10.40;83.00;;;;;;5019996;28;20026;-78
2023/05/24 05:51:29;;;;;;;19.52;7.88;;;10.70;82.30;;;;;;5019213;28;20048;-78
2023/05/24 05:53:55;;;;;;;23.02;8.02;;;11.00;80.40;;;;;;5015782;28;20025;-78
2023/05/24 05:56:20;;;;;;;24.27;8.25;;;11.20;80.30;;;;;;5017688;28;20293;-77
2023/05/24 05:58:46;;;;;;;20.77;7.78;;;11.60;79.90;;;;;;5020374;28;20537;-77
2023/05/24 06:01:12;;;;;;;17.92;8.18;;;12.00;79.30;;;;;;5018341;28;20026;-78
2023/05/24 06:03:37;;;;;;;19.23;7.97;;;12.20;77.10;;;;;;5021373;28;20021;-78
2023/05/24 06:06:03;;;;;;;23.40;8.27;;;12.20;76.10;;;;;;5013390;28;20046;-80
2023/05/24 06:08:33;;;;;;;17.05;7.20;;;12.40;77.60;;;;;;5019414;28;20436;-79
2023/05/24 06:10:59;;;;;;;18.90;7.63;;;12.60;76.90;;;;;;5019827;28;20059;-78
2023/05/24 06:13:27;;;;;;;20.95;7.53;;;12.80;75.40;;;;;;5017465;28;20024;-79
2023/05/24 06:15:53;;;;;;;19.50;6.70;;;13.00;76.00;;;;;;5017045;28;20505;-78
2023/05/24 06:18:18;;;;;;;14.73;6.60;;;13.10;75.50;;;;;;5017237;28;20071;-74
2023/05/24 06:20:44;;;;;;;14.95;6.53;;;13.10;74.80;;;;;;5013477;28;20028;-75
2023/05/24 06:23:10;;;;;;;22.98;7.07;;;13.00;75.20;;;;;;5021597;28;20037;-75
2023/05/24 06:25:37;;;;;;;19.05;6.93;;;13.00;75.90;;;;;;5017547;28;20026;-75
2023/05/24 06:28:03;;;;;;;19.38;7.80;;;12.90;76.10;;;;;;5019994;28;20843;-75
2023/05/24 06:30:29;;;;;;;18.17;6.90;;;13.00;76.70;;;;;;5018415;28;20033;-75
2023/05/24 06:32:55;;;;;;;22.85;8.63;;;12.90;76.30;;;;;;5022453;28;20041;-75
2023/05/24 06:35:21;;;;;;;18.92;7.18;;;13.00;76.40;;;;;;5021059;28;20029;-76
2023/05/24 06:37:47;;;;;;;17.45;6.88;;;13.10;77.00;;;;;;5017651;28;20049;-74
2023/05/24 06:40:12;;;;;;;25.27;7.78;;;13.30;76.70;;;;;;5019487;28;20032;-73
2023/05/24 06:42:38;;;;;;;23.25;7.72;;;13.10;75.40;;;;;;5020501;28;20041;-73
2023/05/24 06:45:05;;;;;;;19.65;7.65;;;13.10;75.70;;;;;;5018766;28;20367;-73
2023/05/24 06:47:31;;;;;;;16.60;7.07;;;13.10;76.50;;;;;;5019490;28;20438;-73
2023/05/24 06:49:57;;;;;;;19.90;7.25;;;13.00;76.50;;;;;;5019542;28;20065;-74
2023/05/24 06:52:22;;;;;;;21.23;6.60;;;13.00;76.30;;;;;;5017122;28;20452;-73
2023/05/24 06:54:49;;;;;;;19.67;6.82;;;12.90;76.20;;;;;;5020517;28;20034;-73
2023/05/24 06:57:14;;;;;;;19.10;7.07;;;12.90;76.90;;;;;;5018332;28;20131;-74
2023/05/24 06:59:40;;;;;;;18.60;7.25;;;13.00;76.90;;;;;;5014796;28;20037;-74
2023/05/24 07:02:05;;;;;;;17.02;6.70;;;13.00;76.30;;;;;;5020873;28;20037;-76
2023/05/24 07:04:31;;;;;;;18.73;7.40;;;13.00;76.50;;;;;;5020095;28;20481;-75
2023/05/24 07:06:57;;;;;;;18.30;7.20;;;13.00;76.30;;;;;;5019341;28;20045;-73
2023/05/24 07:09:22;;;;;;;22.27;7.50;;;13.10;76.60;;;;;;5023052;28;20026;-75
2023/05/24 07:11:48;;;;;;;23.73;7.55;;;13.30;76.00;;;;;;5020048;28;20410;-75
2023/05/24 07:14:14;;;;;;;18.40;6.75;;;13.60;75.20;;;;;;5019504;28;20033;-76
2023/05/24 07:16:40;;;;;;;19.08;6.85;;;13.80;74.70;;;;;;5019276;28;20044;-79
2023/05/24 07:19:06;;;;;;;23.45;6.47;;;13.80;74.10;;;;;;5019049;28;20105;-76
2023/05/24 07:21:32;;;;;;;17.95;6.53;;;14.00;73.80;;;;;;5020299;28;20834;-76
2023/05/24 07:23:58;;;;;;;18.30;6.85;;;14.20;72.90;;;;;;5022112;28;20044;-78
2023/05/24 07:26:23;;;;;;;19.25;6.13;;;14.40;72.20;;;;;;5019611;28;20033;-76
2023/05/24 07:28:49;;;;;;;19.10;6.13;;;14.40;72.40;;;;;;5022436;28;20036;-79
2023/05/24 07:31:15;;;;;;;17.10;6.35;;;14.40;72.00;;;;;;5015733;28;20072;-75
2023/05/24 07:33:41;;;;;;;18.80;5.82;;;14.50;72.20;;;;;;5020211;28;20128;-76
2023/05/24 07:36:07;;;;;;;16.05;6.60;;;14.70;70.30;;;;;;5019597;28;20038;-78
2023/05/24 07:38:33;;;;;;;18.98;6.63;;;14.60;71.20;;;;;;5018495;28;20036;-76
2023/05/24 07:41:03;;;;;;;18.67;6.65;;;14.70;70.10;;;;;;5021325;28;20029;-77
2023/05/24 07:43:29;;;;;;;16.58;5.75;;;14.60;69.40;;;;;;5020463;28;20022;-75
2023/05/24 07:45:55;;;;;;;17.98;6.32;;;14.70;70.10;;;;;;5020872;28;20030;-75
2023/05/24 07:48:21;;;;;;;17.92;6.28;;;14.80;69.80;;;;;;5015908;28;20041;-75
2023/05/24 07:50:49;;;;;;;18.25;5.95;;;14.90;68.80;;;;;;5018454;28;20036;-76
2023/05/24 07:53:15;;;;;;;22.27;6.72;;;14.80;68.50;;;;;;5022575;28;20124;-76
2023/05/24 07:55:40;;;;;;;14.77;6.43;;;14.90;68.50;;;;;;5017386;28;20446;-76
2023/05/24 07:58:06;;;;;;;18.25;6.40;;;14.90;68.80;;;;;;5023555;28;20025;-76
2023/05/24 08:00:32;;;;;;;18.63;6.40;;;14.90;67.20;;;;;;5022039;28;20030;-76
2023/05/24 08:02:59;;;;;;;17.67;6.30;;;15.10;68.20;;;;;;5026157;28;20829;-75
2023/05/24 08:05:25;;;;;;;18.88;7.13;;;15.10;67.30;;;;;;5024815;28;20100;-76
2023/05/24 08:07:51;;;;;;;19.27;6.47;;;14.90;65.10;;;;;;5022995;28;20132;-76
2023/05/24 08:10:17;;;;;;;24.42;7.55;;;14.60;66.80;;;;;;5024763;28;20018;-75
2023/05/24 08:12:43;;;;;;;20.63;7.75;;;14.60;66.80;;;;;;5023646;28;20065;-75
2023/05/24 08:15:09;;;;;;;19.80;8.25;;;14.60;68.50;;;;;;5025092;28;20455;-76
2023/05/24 08:17:35;;;;;;;19.83;7.18;;;14.60;67.50;;;;;;5024313;28;20125;-75
2023/05/24 08:20:05;;;;;;;18.23;6.70;;;14.60;68.10;;;;;;5026116;28;20029;-75
2023/05/24 08:22:31;;;;;;;17.10;7.25;;;14.80;68.30;;;;;;5026331;28;20481;-75
2023/05/24 08:24:57;;;;;;;14.68;6.32;;;15.00;67.50;;;;;;5024950;28;20026;-75
2023/05/24 08:27:23;;;;;;;18.30;6.80;;;15.20;66.10;;;;;;5026612;28;20060;-76
2023/05/24 08:29:48;;;;;;;16.70;6.22;;;15.30;64.10;;;;;;5025375;28;20033;-78
2023/05/24 08:32:14;;;;;;;21.60;7.22;;;15.40;62.90;;;;;;5022343;28;20046;-75
2023/05/24 08:34:40;;;;;;;14.48;6.35;;;15.60;62.80;;;;;;5022226;28;20657;-77
2023/05/24 08:37:06;;;;;;;16.42;6.97;;;15.60;64.30;;;;;;5024990;28;20288;-77
2023/05/24 08:39:32;;;;;;;19.75;6.40;;;15.50;64.10;;;;;;5022452;28;20022;-76
2023/05/24 08:41:59;;;;;;;18.95;6.97;;;15.50;63.80;;;;;;5022921;28;20044;-76
2023/05/24 08:44:25;;;;;;;19.42;7.95;;;15.60;63.90;;;;;;5033901;28;20040;-74
2023/05/24 08:46:53;;;;;;;17.67;7.35;;;15.40;63.90;;;;;;5048028;28;20029;-75
2023/05/24 08:49:20;;;;;;;18.52;7.60;;;15.40;63.70;;;;;;5026965;28;20096;-76
2023/05/24 08:51:46;;;;;;;17.27;7.25;;;15.50;63.40;;;;;;5022673;28;21500;-75
2023/05/24 08:54:13;;;;;;;21.00;7.78;;;15.40;62.40;;;;;;5020330;28;20046;-77
2023/05/24 08:56:39;;;;;;;14.95;6.20;;;15.30;62.50;;;;;;5015406;28;20128;-75
2023/05/24 08:59:07;;;;;;;15.38;6.55;;;15.30;61.60;;;;;;5023208;28;20026;-76
2023/05/24 09:01:35;;;;;;;21.58;7.63;;;15.50;61.10;;;;;;5021630;28;20033;-75
2023/05/24 09:04:03;;;;;;;21.23;7.38;;;15.50;61.50;;;;;;5022620;28;20040;-75
2023/05/24 09:06:29;;;;;;;17.02;7.07;;;15.60;61.30;;;;;;5021902;28;20033;-75
2023/05/24 09:08:55;;;;;;;15.57;6.57;;;15.70;62.10;;;;;;5018309;28;20109;-74
2023/05/24 09:11:23;;;;;;;17.27;6.78;;;15.70;60.20;;;;;;5021503;28;20046;-76
2023/05/24 09:13:49;;;;;;;14.77;6.75;;;15.80;59.40;;;;;;5016792;28;21455;-75
2023/05/24 09:16:15;;;;;;;17.90;7.95;;;15.80;59.10;;;;;;5014880;28;20116;-74
2023/05/24 09:18:41;;;;;;;17.10;6.70;;;16.10;60.20;;;;;;5020395;28;20113;-75
2023/05/24 09:21:09;;;;;;;20.08;7.30;;;16.00;59.70;;;;;;5022444;28;20042;-75
2023/05/24 09:23:35;;;;;;;16.42;7.32;;;16.20;60.00;;;;;;5023945;28;20510;-74
2023/05/24 09:26:09;;;;;;;15.98;6.70;;;16.40;60.30;;;;;;5018865;28;20076;-75
2023/05/24 09:28:36;;;;;;;16.27;6.95;;;16.60;60.50;;;;;;5024714;28;20032;-75
2023/05/24 09:31:03;;;;;;;16.75;6.38;;;16.60;59.60;;;;;;5021677;28;20048;-75
2023/05/24 09:33:31;;;;;;;15.98;7.18;;;16.90;60.40;;;;;;5022754;28;20032;-73
2023/05/24 09:35:58;;;;;;;20.52;8.15;;;17.10;59.30;;;;;;5033523;28;20029;-74
2023/05/24 09:38:24;;;;;;;19.60;7.50;;;17.00;58.60;;;;;;5027105;28;20485;-74
2023/05/24 09:41:04;;;;;;;19.83;7.15;;;17.10;59.00;;;;;;5017642;28;20048;-75
2023/05/24 09:43:34;;;;;;;19.35;8.10;;;17.30;58.10;;;;;;5025074;28;20021;-76
2023/05/24 09:46:04;;;;;;;15.45;5.78;;;17.10;56.90;;;;;;5017246;28;20560;-77
2023/05/24 09:48:30;;;;;;;13.88;6.65;;;17.10;55.90;;;;;;5025409;28;20021;-76
2023/05/24 09:51:08;;;;;;;12.13;5.50;;;17.00;55.60;;;;;;5017640;28;20135;-77
2023/05/24 09:53:34;;;;;;;21.95;7.10;;;17.20;55.70;;;;;;5021415;28;20611;-77
2023/05/24 09:56:03;;;;;;;14.32;5.95;;;17.00;55.40;;;;;;5016014;28;20477;-78
2023/05/24 09:58:31;;;;;;;16.52;6.78;;;17.00;56.30;;;;;;5021842;28;20026;-77
2023/05/24 10:01:13;;;;;;;15.50;6.35;;;17.10;57.50;;;;;;5015094;28;20033;-79
2023/05/24 10:03:51;;;;;;;12.43;6.03;;;17.10;56.20;;;;;;5018145;28;20042;-79
2023/05/24 10:06:18;;;;;;;14.70;6.15;;;17.60;55.50;;;;;;5016431;28;20037;-80
2023/05/24 10:08:43;;;;;;;12.73;5.57;;;17.40;53.30;;;;;;5019080;28;20033;-78
2023/05/24 10:11:09;;;;;;;14.70;5.68;;;17.50;53.70;;;;;;5016738;28;20091;-79
2023/05/24 10:13:35;;;;;;;14.40;5.80;;;17.70;54.70;;;;;;5021306;28;20060;-80
2023/05/24 10:16:02;;;;;;;16.10;5.85;;;18.20;54.10;;;;;;5022357;28;20572;-78
2023/05/24 10:18:28;;;;;;;13.35;5.63;;;18.40;52.70;;;;;;5022728;28;20021;-77
2023/05/24 10:20:58;;;;;;;15.80;6.32;;;18.30;54.40;;;;;;5018208;28;20291;-80
2023/05/24 10:23:28;;;;;;;19.35;6.00;;;18.60;52.80;;;;;;5020713;28;20385;-79
2023/05/24 10:26:08;;;;;;;13.10;5.35;;;18.40;52.20;;;;;;5020144;28;20031;-79
2023/05/24 10:28:47;;;;;;;17.83;6.00;;;18.30;48.40;;;;;;5016263;28;20408;-79
2023/05/24 10:31:33;;;;;;;15.50;5.72;;;18.80;49.50;;;;;;5016879;28;20053;-79
2023/05/24 10:34:01;;;;;;;16.75;5.38;;;18.90;50.30;;;;;;5017159;28;20109;-81
2023/05/24 10:36:27;;;;;;;12.65;5.40;;;18.70;48.20;;;;;;5011736;28;20510;-82
2023/05/24 10:38:54;;;;;;;17.92;5.70;;;19.10;49.20;;;;;;5010250;28;20101;-84
2023/05/24 10:41:21;;;;;;;14.02;5.57;;;19.10;48.50;;;;;;5008649;28;20060;-79
2023/05/24 10:43:47;;;;;;;15.07;5.78;;;19.10;48.00;;;;;;5009619;28;20033;-78
2023/05/24 10:46:15;;;;;;;13.68;5.80;;;18.80;49.10;;;;;;5010272;28;20041;-75
2023/05/24 10:48:41;;;;;;;14.13;5.55;;;18.70;50.10;;;;;;5011587;28;20513;-76
2023/05/24 10:51:32;;;;;;;13.20;6.43;;;19.10;51.30;;;;;;5007836;28;20050;-77
2023/05/24 10:54:13;;;;;;;16.13;6.68;;;19.30;51.80;;;;;;5009295;28;20026;-76
2023/05/24 10:56:41;;;;;;;14.18;5.40;;;19.50;49.40;;;;;;5011246;28;20069;-74
2023/05/24 10:59:07;;;;;;;17.45;6.57;;;19.90;49.90;;;;;;5008214;28;20496;-75
2023/05/24 11:01:33;;;;;;;17.95;6.30;;;20.00;47.40;;;;;;5006309;28;20052;-73
2023/05/24 11:04:10;;;;;;;14.15;6.30;;;19.10;49.60;;;;;;5007425;28;20039;-72
2023/05/24 11:06:48;;;;;;;14.70;6.70;;;18.70;50.70;;;;;;5007413;28;20042;-71
2023/05/24 11:09:19;;;;;;;14.73;6.47;;;18.50;51.40;;;;;;5007345;28;20524;-72
2023/05/24 11:11:46;;;;;;;12.57;6.43;;;18.80;51.80;;;;;;5007733;28;20057;-73
2023/05/24 11:14:13;;;;;;;14.57;6.57;;;19.20;48.50;;;;;;5004471;28;20233;-72
2023/05/24 11:16:39;;;;;;;16.20;6.15;;;19.30;48.90;;;;;;5008436;28;20553;-72
2023/05/24 11:19:12;;;;;;;16.30;6.13;;;19.10;50.50;;;;;;5007552;28;20029;-72
2023/05/24 11:21:40;;;;;;;13.73;6.28;;;18.70;50.30;;;;;;5009491;28;20069;-72
2023/05/24 11:24:07;;;;;;;15.52;6.72;;;18.50;51.70;;;;;;5008659;28;20019;-72
2023/05/24 11:26:32;;;;;;;16.80;6.88;;;18.60;52.10;;;;;;5007060;28;20056;-72
2023/05/24 11:29:00;;;;;;;16.88;6.93;;;18.70;52.00;;;;;;5011993;28;20029;-73
2023/05/24 11:31:28;;;;;;;13.13;6.75;;;19.10;51.20;;;;;;5010572;28;20056;-72
2023/05/24 11:33:54;;;;;;;13.80;6.72;;;19.10;52.00;;;;;;5021923;28;20033;-72
2023/05/24 11:36:20;;;;;;;17.52;8.20;;;19.00;53.10;;;;;;5020646;28;20042;-72
2023/05/24 11:38:49;;;;;;;14.85;7.22;;;19.00;51.40;;;;;;5022771;28;20547;-72
2023/05/24 11:41:16;;;;;;;14.10;7.30;;;18.90;52.10;;;;;;5022708;28;20782;-72
2023/05/24 11:43:43;;;;;;;16.52;7.82;;;19.00;51.50;;;;;;5020474;28;20026;-73
2023/05/24 11:46:10;;;;;;;18.35;7.75;;;19.40;52.30;;;;;;5021086;28;20060;-72
2023/05/24 11:48:35;;;;;;;15.15;7.05;;;19.50;51.80;;;;;;5021163;28;20651;-72
2023/05/24 11:51:04;;;;;;;14.57;6.65;;;19.30;51.10;;;;;;5011819;28;20145;-72
2023/05/24 11:53:29;;;;;;;15.48;7.72;;;19.20;51.40;;;;;;5018351;28;20068;-72
2023/05/24 11:55:55;;;;;;;15.50;7.30;;;19.00;52.10;;;;;;5022728;28;20478;-72
2023/05/24 11:58:43;;;;;;;15.50;6.95;;;19.20;52.40;;;;;;5023924;28;20076;-73
2023/05/24 12:01:28;;;;;;;13.45;7.20;;;19.10;52.10;;;;;;5020522;28;20037;-71
2023/05/24 12:03:54;;;;;;;15.40;7.45;;;18.90;52.90;;;;;;5018924;28;20076;-71
2023/05/24 12:06:20;;;;;;;17.55;7.00;;;19.10;52.40;;;;;;5019696;28;20038;-74
2023/05/24 12:08:47;;;;;;;14.43;6.60;;;19.10;51.90;;;;;;5018003;28;20084;-74
2023/05/24 12:11:14;;;;;;;14.00;6.75;;;19.30;51.00;;;;;;5021432;28;20046;-75
2023/05/24 12:13:41;;;;;;;13.93;6.97;;;19.80;51.10;;;;;;5023117;28;20037;-74
2023/05/24 12:16:07;;;;;;;14.30;6.78;;;19.90;52.20;;;;;;5021021;28;20482;-72
2023/05/24 12:18:33;;;;;;;14.57;7.07;;;20.10;49.50;;;;;;5024662;28;20040;-72
2023/05/24 12:20:58;;;;;;;12.70;6.57;;;20.10;49.00;;;;;;5020506;28;20033;-71
2023/05/24 12:23:31;;;;;;;15.23;7.28;;;20.30;49.30;;;;;;5016803;28;20032;-72
2023/05/24 12:26:00;;;;;;;13.73;7.75;;;20.60;45.70;;;;;;5007907;28;20513;-72
2023/05/24 12:28:34;;;;;;;15.75;6.82;;;20.70;47.60;;;;;;5019783;28;20624;-72
2023/05/24 12:31:00;;;;;;;14.75;7.25;;;20.40;46.70;;;;;;5018681;28;20072;-72
2023/05/24 12:33:27;;;;;;;13.15;7.43;;;20.20;47.30;;;;;;5015534;28;20040;-72
2023/05/24 12:35:55;;;;;;;13.93;6.82;;;20.10;46.10;;;;;;5017819;28;20051;-73
2023/05/24 12:38:24;;;;;;;13.52;6.70;;;20.30;47.10;;;;;;5019936;28;20359;-72
2023/05/24 12:40:53;;;;;;;12.07;6.13;;;20.40;46.60;;;;;;5019007;28;20084;-72
2023/05/24 12:43:19;;;;;;;14.18;7.05;;;20.20;44.90;;;;;;5021561;28;20025;-72